createdAt,value
2018-09-15T00:02:45.825Z,100223.23
2018-09-15T00:06:49.308Z,100223.73
2018-09-15T00:10:52.869Z,100220.92
2018-09-15T00:14:56.500Z,100212.52
2018-09-15T00:18:59.977Z,100213.48
2018-09-15T00:23:03.548Z,100211.89
2018-09-15T00:27:07.796Z,100212.42
2018-09-15T00:31:11.255Z,100207.13
2018-09-15T00:35:14.768Z,100208.06
2018-09-15T00:39:18.516Z,100201.86
2018-09-15T00:43:22.037Z,100195.62
2018-09-15T00:47:25.617Z,100210.30
2018-09-15T00:51:29.122Z,100203.26
2018-09-15T00:55:32.767Z,100196.59
2018-09-15T00:59:36.310Z,100188.19
2018-09-15T01:03:39.821Z,100191.78
2018-09-15T01:07:43.491Z,100184.25
2018-09-15T01:11:47.059Z,100183.02
2018-09-15T01:15:50.729Z,100185.28
2018-09-15T01:19:54.482Z,100182.65
2018-09-15T01:23:57.971Z,100186.28
2018-09-15T01:28:01.406Z,100191.22
2018-09-15T01:32:05.156Z,100197.11
2018-09-15T01:36:09.785Z,100198.11
2018-09-15T01:40:13.233Z,100207.94
2018-09-15T01:44:16.737Z,100206.67
2018-09-15T01:48:20.310Z,100200.50
2018-09-15T01:52:24.039Z,100210.36
2018-09-15T01:56:27.566Z,100209.09
2018-09-15T02:00:31.076Z,100210.08
2018-09-15T02:04:34.702Z,100212.38
2018-09-15T02:08:38.254Z,100220.52
2018-09-15T02:12:41.795Z,100211.25
2018-09-15T02:16:45.487Z,100204.65
2018-09-15T02:20:49.132Z,100206.91
2018-09-15T02:24:52.577Z,100208.33
2018-09-15T02:28:56.230Z,100205.70
2018-09-15T02:32:59.965Z,100203.13
2018-09-15T02:37:03.507Z,100201.94
2018-09-15T02:41:08.007Z,100215.78
2018-09-15T02:45:11.671Z,100221.59
2018-09-15T02:49:15.308Z,100217.63
2018-09-15T02:53:18.790Z,100214.99
2018-09-15T02:57:22.275Z,100216.81
2018-09-15T03:01:26.259Z,100209.34
2018-09-15T03:05:29.752Z,100205.87
2018-09-15T03:09:33.191Z,100209.92
2018-09-15T03:13:38.021Z,100212.14
2018-09-15T03:17:41.585Z,100217.06
2018-09-15T03:21:46.115Z,100217.96
2018-09-15T03:25:49.797Z,100228.17
2018-09-15T03:29:53.511Z,100233.97
2018-09-15T03:33:56.949Z,100241.98
2018-09-15T03:38:01.587Z,100242.01
2018-09-15T03:42:05.280Z,100247.83
2018-09-15T03:46:09.868Z,100253.66
2018-09-15T03:50:13.454Z,100259.04
2018-09-15T03:54:19.807Z,100263.08
2018-09-15T03:58:23.490Z,100261.81
2018-09-15T04:02:27.171Z,100266.26
2018-09-15T04:06:30.758Z,100268.05
2018-09-15T04:10:34.247Z,100272.53
2018-09-15T04:14:37.818Z,100271.20
2018-09-15T04:18:41.332Z,100273.38
2018-09-15T04:22:45.110Z,100276.48
2018-09-15T04:26:48.904Z,100277.81
2018-09-15T04:30:52.443Z,100290.28
2018-09-15T04:34:56.068Z,100299.14
2018-09-15T04:38:59.567Z,100303.19
2018-09-15T04:43:03.231Z,100309.86
2018-09-15T04:47:06.988Z,100306.77
2018-09-15T04:51:10.863Z,100308.95
2018-09-15T04:55:14.481Z,100308.92
2018-09-15T04:59:17.973Z,100310.66
2018-09-15T05:03:21.643Z,100315.98
2018-09-15T05:07:25.211Z,100322.97
2018-09-15T05:11:28.759Z,100330.92
2018-09-15T05:15:32.262Z,100327.38
2018-09-15T05:19:35.786Z,100338.50
2018-09-15T05:23:39.299Z,100355.33
2018-09-15T05:27:42.783Z,100347.73
2018-09-15T05:31:46.687Z,100363.34
2018-09-15T05:35:50.174Z,100357.57
2018-09-15T05:39:53.767Z,100357.52
2018-09-15T05:43:57.394Z,100359.20
2018-09-15T05:48:01.107Z,100344.52
2018-09-15T05:52:04.674Z,100340.97
2018-09-15T05:56:08.425Z,100348.03
2018-09-15T06:00:12.004Z,100358.23
2018-09-15T06:04:15.682Z,100364.45
2018-09-15T06:08:19.339Z,100383.45
2018-09-15T06:12:22.866Z,100382.08
2018-09-15T06:16:26.441Z,100382.03
2018-09-15T06:20:31.292Z,100384.66
2018-09-15T06:24:34.822Z,100375.71
2018-09-15T06:28:38.486Z,100372.16
2018-09-15T06:32:41.958Z,100370.80
2018-09-15T06:36:45.795Z,100382.66
2018-09-15T06:40:49.265Z,100385.14
2018-09-15T06:44:52.689Z,100383.27
2018-09-15T06:48:56.249Z,100378.66
2018-09-15T06:52:59.847Z,100379.34
2018-09-15T06:57:03.653Z,100378.20
2018-09-15T07:01:07.563Z,100384.35
2018-09-15T07:05:11.070Z,100396.22
2018-09-15T07:09:15.149Z,100410.72
2018-09-15T07:13:18.822Z,100406.05
2018-09-15T07:17:22.289Z,100403.18
2018-09-15T07:21:25.906Z,100400.23
2018-09-15T07:25:29.546Z,100395.46
2018-09-15T07:29:32.987Z,100391.60
2018-09-15T07:33:36.507Z,100399.52
2018-09-15T07:37:40.045Z,100406.97
2018-09-15T07:41:43.590Z,100411.21
2018-09-15T07:45:47.150Z,100419.73
2018-09-15T07:49:50.746Z,100423.94
2018-09-15T07:53:54.366Z,100423.73
2018-09-15T07:57:58.055Z,100423.63
2018-09-15T08:02:03.043Z,100424.92
2018-09-15T08:06:06.466Z,100425.79
2018-09-15T08:10:09.974Z,100426.59
2018-09-15T08:14:13.470Z,100424.68
2018-09-15T08:18:16.982Z,100431.76
2018-09-15T08:22:20.496Z,100426.20
2018-09-15T08:26:23.988Z,100427.67
2018-09-15T08:30:27.574Z,100425.53
2018-09-15T08:34:31.106Z,100424.33
2018-09-15T08:38:34.824Z,100430.31
2018-09-15T08:42:38.311Z,100433.11
2018-09-15T08:46:41.774Z,100421.97
2018-09-15T08:50:45.406Z,100430.06
2018-09-15T08:54:48.918Z,100441.34
2018-09-15T08:58:52.674Z,100440.66
2018-09-15T09:02:56.258Z,100431.52
2018-09-15T09:11:02.302Z,100430.52
2018-09-15T09:15:06.034Z,100430.16
2018-09-15T09:19:10.754Z,100438.92
2018-09-15T09:23:14.169Z,100436.17
2018-09-15T09:27:17.705Z,100423.30
2018-09-15T09:31:21.315Z,100416.69
2018-09-15T09:35:24.938Z,100422.57
2018-09-15T09:39:28.441Z,100433.49
2018-09-15T09:43:31.942Z,100433.58
2018-09-15T09:47:35.806Z,100434.63
2018-09-15T09:51:39.330Z,100438.03
2018-09-15T09:55:42.887Z,100440.19
2018-09-15T09:59:47.665Z,100444.21
2018-09-15T10:03:51.605Z,100443.34
2018-09-15T10:07:55.078Z,100444.59
2018-09-15T10:11:58.673Z,100441.42
2018-09-15T10:16:02.500Z,100441.91
2018-09-15T10:20:07.062Z,100437.06
2018-09-15T10:24:11.037Z,100439.22
2018-09-15T10:28:14.598Z,100437.40
2018-09-15T10:32:18.107Z,100437.82
2018-09-15T10:36:22.083Z,100435.48
2018-09-15T10:40:25.712Z,100449.19
2018-09-15T10:44:29.303Z,100453.32
2018-09-15T10:48:32.914Z,100451.34
2018-09-15T10:52:36.425Z,100456.08
2018-09-15T10:56:40.071Z,100454.09
2018-09-15T11:00:43.759Z,100445.02
2018-09-15T11:04:47.678Z,100444.64
2018-09-15T11:08:51.178Z,100445.77
2018-09-15T11:12:54.768Z,100443.03
2018-09-15T11:16:58.403Z,100438.41
2018-09-15T11:21:02.187Z,100444.88
2018-09-15T11:25:06.906Z,100444.18
2018-09-15T11:29:10.595Z,100448.32
2018-09-15T11:33:14.301Z,100441.59
2018-09-15T11:37:18.002Z,100440.64
2018-09-15T11:41:21.626Z,100438.42
2018-09-15T11:45:25.360Z,100447.36
2018-09-15T11:49:29.023Z,100440.64
2018-09-15T11:53:32.521Z,100451.48
2018-09-15T11:57:36.035Z,100444.17
2018-09-15T12:01:41.804Z,100441.27
2018-09-15T12:05:45.508Z,100442.02
2018-09-15T12:09:49.051Z,100438.45
2018-09-15T12:13:52.537Z,100426.85
2018-09-15T12:17:56.080Z,100436.65
2018-09-15T12:21:59.719Z,100431.19
2018-09-15T12:26:03.214Z,100425.22
2018-09-15T12:30:07.298Z,100423.97
2018-09-15T12:34:10.815Z,100423.52
2018-09-15T12:38:14.385Z,100418.23
2018-09-15T12:42:18.043Z,100420.08
2018-09-15T12:46:21.929Z,100415.45
2018-09-15T12:50:25.483Z,100412.77
2018-09-15T12:54:29.194Z,100412.31
2018-09-15T12:58:32.726Z,100411.36
2018-09-15T13:02:37.642Z,100407.63
2018-09-15T13:06:41.245Z,100405.31
2018-09-15T13:10:44.758Z,100402.36
2018-09-15T13:14:50.654Z,100408.40
2018-09-15T13:18:55.219Z,100408.88
2018-09-15T13:22:58.850Z,100409.50
2018-09-15T13:27:02.435Z,100401.91
2018-09-15T13:31:06.126Z,100396.06
2018-09-15T13:35:10.317Z,100400.39
2018-09-15T13:39:13.806Z,100402.18
2018-09-15T13:43:17.247Z,100396.00
2018-09-15T13:47:21.099Z,100403.46
2018-09-15T13:51:24.836Z,100399.05
2018-09-15T13:55:28.314Z,100400.03
2018-09-15T13:59:32.055Z,100403.39
2018-09-15T14:03:35.558Z,100401.36
2018-09-15T14:07:39.526Z,100407.22
2018-09-15T14:11:43.090Z,100395.45
2018-09-15T14:15:46.673Z,100395.38
2018-09-15T14:19:50.184Z,100393.85
2018-09-15T14:23:54.827Z,100391.02
2018-09-15T14:27:58.375Z,100388.87
2018-09-15T14:32:01.867Z,100405.11
2018-09-15T14:36:05.380Z,100399.89
2018-09-15T14:40:08.976Z,100389.14
2018-09-15T14:44:13.725Z,100390.95
2018-09-15T14:48:17.193Z,100403.50
2018-09-15T14:52:20.752Z,100404.84
2018-09-15T14:56:24.307Z,100401.32
2018-09-15T15:00:28.806Z,100397.34
2018-09-15T15:04:32.297Z,100398.21
2018-09-15T15:08:35.810Z,100399.02
2018-09-15T15:12:39.391Z,100404.25
2018-09-15T15:16:43.107Z,100402.73
2018-09-15T15:20:46.682Z,100400.84
2018-09-15T15:24:50.367Z,100393.32
2018-09-15T15:28:54.216Z,100395.11
2018-09-15T15:32:58.016Z,100386.45
2018-09-15T15:37:01.947Z,100396.33
2018-09-15T15:41:05.496Z,100394.23
2018-09-15T15:45:09.230Z,100393.48
2018-09-15T15:49:12.834Z,100395.48
2018-09-15T15:53:16.449Z,100403.00
2018-09-15T15:57:19.998Z,100393.66
2018-09-15T16:01:23.601Z,100401.77
2018-09-15T16:05:27.702Z,100400.33
2018-09-15T16:09:31.315Z,100401.84
2018-09-15T16:13:35.078Z,100412.20
2018-09-15T16:17:38.697Z,100418.07
2018-09-15T16:21:42.187Z,100411.89
2018-09-15T16:25:45.801Z,100405.82
2018-09-15T16:29:49.191Z,100412.31
2018-09-15T16:33:52.943Z,100415.64
2018-09-15T16:37:56.403Z,100417.14
2018-09-15T16:42:00.022Z,100420.25
2018-09-15T16:46:03.794Z,100419.16
2018-09-15T16:50:07.338Z,100420.03
2018-09-15T16:54:10.848Z,100421.00
2018-09-15T16:58:14.424Z,100425.50
2018-09-15T17:02:17.902Z,100423.39
2018-09-15T17:06:21.468Z,100416.80
2018-09-15T17:10:24.930Z,100416.56
2018-09-15T17:14:29.470Z,100424.27
2018-09-15T17:18:33.350Z,100432.38
2018-09-15T17:22:36.835Z,100436.55
2018-09-15T17:26:40.374Z,100439.20
2018-09-15T17:30:44.087Z,100447.06
2018-09-15T17:34:48.055Z,100451.75
2018-09-15T17:38:51.562Z,100453.62
2018-09-15T17:42:55.075Z,100460.94
2018-09-15T17:46:58.575Z,100460.22
2018-09-15T17:51:02.099Z,100463.99
2018-09-15T17:55:06.226Z,100482.88
2018-09-15T17:59:09.842Z,100484.78
2018-09-15T18:03:13.458Z,100490.92
2018-09-15T18:07:17.091Z,100500.63
2018-09-15T18:11:20.771Z,100507.58
2018-09-15T18:15:24.305Z,100510.04
2018-09-15T18:19:28.766Z,100518.67
2018-09-15T18:23:32.310Z,100522.31
2018-09-15T18:27:35.870Z,100519.28
2018-09-15T18:31:39.366Z,100525.16
2018-09-15T18:35:43.206Z,100525.20
2018-09-15T18:39:46.799Z,100528.83
2018-09-15T18:43:50.314Z,100535.13
2018-09-15T18:47:53.989Z,100540.14
2018-09-15T18:51:57.551Z,100542.50
2018-09-15T18:56:03.107Z,100554.12
2018-09-15T19:00:06.682Z,100553.30
2018-09-15T19:04:10.190Z,100554.24
2018-09-15T19:08:14.084Z,100553.38
2018-09-15T19:12:17.733Z,100564.61
2018-09-15T19:16:21.378Z,100571.81
2018-09-15T19:20:25.047Z,100574.61
2018-09-15T19:24:28.758Z,100576.89
2018-09-15T19:28:32.298Z,100586.81
2018-09-15T19:32:36.225Z,100592.80
2018-09-15T19:36:40.051Z,100590.23
2018-09-15T19:40:43.747Z,100593.89
2018-09-15T19:44:47.299Z,100591.25
2018-09-15T19:48:52.074Z,100593.09
2018-09-15T19:52:55.563Z,100597.22
2018-09-15T19:56:59.551Z,100598.63
2018-09-15T20:01:03.022Z,100599.21
2018-09-15T20:05:06.585Z,100598.89
2018-09-15T20:09:11.388Z,100602.97
2018-09-15T20:13:14.881Z,100610.16
2018-09-15T20:17:17.318Z,100608.50
2018-09-15T20:21:19.622Z,100599.20
2018-09-15T20:25:23.138Z,100607.73
2018-09-15T20:29:26.807Z,100611.35
2018-09-15T20:33:30.356Z,100617.67
2018-09-15T20:37:33.818Z,100622.19
2018-09-15T20:41:37.425Z,100625.44
2018-09-15T20:45:40.990Z,100623.36
2018-09-15T20:49:44.551Z,100634.16
2018-09-15T20:53:47.983Z,100636.90
2018-09-15T20:57:51.556Z,100641.44
2018-09-15T21:01:55.139Z,100639.30
2018-09-15T21:05:58.714Z,100641.17
2018-09-15T21:10:02.194Z,100646.15
2018-09-15T21:14:05.823Z,100648.02
2018-09-15T21:18:09.330Z,100644.09
2018-09-15T21:22:12.922Z,100653.08
2018-09-15T21:26:16.554Z,100651.34
2018-09-15T21:30:20.255Z,100660.87
2018-09-15T21:34:23.750Z,100665.84
2018-09-15T21:38:27.402Z,100675.23
2018-09-15T21:42:30.998Z,100684.67
2018-09-15T21:46:34.785Z,100685.69
2018-09-15T21:50:38.552Z,100685.86
2018-09-15T21:54:42.231Z,100682.34
2018-09-15T21:58:45.863Z,100687.20
2018-09-15T22:02:49.457Z,100692.92
2018-09-15T22:06:54.483Z,100693.38
2018-09-15T22:10:57.980Z,100696.52
2018-09-15T22:15:03.083Z,100692.92
2018-09-15T22:19:06.990Z,100695.16
2018-09-15T22:23:10.447Z,100687.20
2018-09-15T22:27:14.244Z,100699.27
2018-09-15T22:31:17.826Z,100703.31
2018-09-15T22:35:21.385Z,100707.34
2018-09-15T22:39:24.794Z,100718.12
2018-09-15T22:43:28.324Z,100718.66
2018-09-15T22:47:32.869Z,100716.88
2018-09-15T22:51:36.473Z,100721.33
2018-09-15T22:55:41.033Z,100719.50
2018-09-15T22:59:44.726Z,100720.81
2018-09-15T23:03:48.354Z,100727.92
2018-09-15T23:07:52.090Z,100724.87
2018-09-15T23:11:55.635Z,100724.05
2018-09-15T23:15:59.184Z,100719.25
2018-09-15T23:20:02.999Z,100720.15
2018-09-15T23:24:06.762Z,100718.81
2018-09-15T23:28:10.512Z,100723.26
2018-09-15T23:32:14.015Z,100725.11
2018-09-15T23:36:17.795Z,100717.12
2018-09-15T23:40:21.448Z,100714.09
2018-09-15T23:44:25.045Z,100718.61
2018-09-15T23:48:28.624Z,100719.94
2018-09-15T23:52:32.158Z,100721.70
2018-09-15T23:56:36.778Z,100714.59
